Time;durP1;ratioP1;P1;durP2;ratioP2;P2;SDS_P1;SDS_P2;PMS_P1;PMS_P2;Temp;Humidity;BMP_temperature;BMP_pressure;BME280_temperature;BME280_humidity;BME280_pressure;Samples;Min_cycle;Max_cycle;Signal;HPM_P1;HPM_P2
2022/06/20 00:02:03;;;;;;;;;;;;;;;;;;10490113;28;20356;-67
2022/06/20 00:07:05;;;;;;;9.57;7.68;;;;;;;;;;10490248;28;19924;-67
2022/06/20 00:12:17;;;;;;;7.55;5.65;;;;;;;;;;10489908;28;20071;-67
2022/06/20 00:17:20;;;;;;;7.97;6.43;;;;;;;;;;10489728;28;20102;-67
2022/06/20 00:22:22;;;;;;;8.73;6.50;;;;;;;;;;10481157;28;20067;-67
2022/06/20 00:27:26;;;;;;;5.65;4.80;;;;;;;;;;10489170;28;20045;-68
2022/06/20 00:32:28;;;;;;;4.40;3.97;;;;;;;;;;10489356;28;20052;-67
2022/06/20 00:37:32;;;;;;;3.97;3.33;;;;;;;;;;10473698;28;20294;-67
2022/06/20 00:42:35;;;;;;;4.13;2.92;;;;;;;;;;10489366;28;20052;-68
2022/06/20 00:47:39;;;;;;;4.63;3.10;;;;;;;;;;10488183;28;20308;-68
2022/06/20 00:52:47;;;;;;;8.82;4.00;;;;;;;;;;10488443;28;20313;-67
2022/06/20 00:57:55;;;;;;;4.18;2.92;;;;;;;;;;10488747;28;20041;-67
2022/06/20 01:03:08;;;;;;;4.25;2.88;;;;;;;;;;10485243;28;20053;-67
2022/06/20 01:08:16;;;;;;;3.42;3.15;;;;;;;;;;10489260;28;20413;-68
2022/06/20 01:13:22;;;;;;;3.72;3.33;;;;;;;;;;10488322;28;20052;-67
2022/06/20 01:18:27;;;;;;;7.22;3.53;;;;;;;;;;10474458;28;20061;-68
2022/06/20 01:23:38;;;;;;;9.75;3.42;;;;;;;;;;10474843;28;20048;-68
2022/06/20 01:28:45;;;;;;;5.15;3.88;;;;;;;;;;10487727;28;20068;-68
2022/06/20 01:33:50;;;;;;;8.05;4.22;;;;;;;;;;10474760;28;20106;-67
2022/06/20 01:38:54;;;;;;;7.72;3.88;;;;;;;;;;10487622;28;20048;-68
2022/06/20 01:44:00;;;;;;;6.15;4.10;;;;;;;;;;10474187;28;20051;-68
2022/06/20 01:49:09;;;;;;;6.63;3.97;;;;;;;;;;10482719;28;20053;-68
2022/06/20 01:54:13;;;;;;;6.22;3.92;;;;;;;;;;10473610;28;20356;-68
2022/06/20 01:59:21;;;;;;;6.75;4.40;;;;;;;;;;10493926;28;20332;-67
2022/06/20 02:04:28;;;;;;;6.45;4.93;;;;;;;;;;10480758;28;20061;-68
2022/06/20 02:09:32;;;;;;;12.25;4.97;;;;;;;;;;10494957;28;20048;-68
2022/06/20 02:14:41;;;;;;;5.82;4.45;;;;;;;;;;10494302;28;20045;-68
2022/06/20 02:19:49;;;;;;;8.75;5.15;;;;;;;;;;10480571;28;20056;-67
2022/06/20 02:24:57;;;;;;;8.73;4.88;;;;;;;;;;10494268;28;20068;-67
2022/06/20 02:30:02;;;;;;;6.05;4.53;;;;;;;;;;10479639;28;20063;-68
2022/06/20 02:35:10;;;;;;;5.78;3.90;;;;;;;;;;10493786;28;20350;-66
2022/06/20 02:40:16;;;;;;;4.30;3.88;;;;;;;;;;10479856;28;20057;-67
2022/06/20 02:45:21;;;;;;;5.15;4.18;;;;;;;;;;10479952;28;20060;-67
2022/06/20 02:50:27;;;;;;;6.72;4.10;;;;;;;;;;10484905;28;20056;-68
2022/06/20 02:55:33;;;;;;;4.32;3.60;;;;;;;;;;10479433;28;20067;-68
2022/06/20 03:00:43;;;;;;;4.88;3.67;;;;;;;;;;10493159;28;20044;-68
2022/06/20 03:05:45;;;;;;;7.80;4.50;;;;;;;;;;10492661;28;20040;-68
2022/06/20 03:10:50;;;;;;;4.57;3.50;;;;;;;;;;10478699;28;20344;-67
2022/06/20 03:15:54;;;;;;;4.65;3.83;;;;;;;;;;10492222;28;20236;-68
2022/06/20 03:20:56;;;;;;;5.40;3.85;;;;;;;;;;10487884;28;20057;-67
2022/06/20 03:26:01;;;;;;;5.72;3.55;;;;;;;;;;10487010;28;20052;-68
2022/06/20 03:31:06;;;;;;;4.45;3.28;;;;;;;;;;10491807;28;20045;-68
2022/06/20 03:36:13;;;;;;;5.60;3.70;;;;;;;;;;10478275;28;20243;-68
2022/06/20 03:41:17;;;;;;;5.07;3.80;;;;;;;;;;10476055;28;20060;-68
2022/06/20 03:46:26;;;;;;;7.10;5.10;;;;;;;;;;10476079;28;20355;-67
2022/06/20 03:51:34;;;;;;;25.95;9.95;;;;;;;;;;10476959;28;20367;-67
2022/06/20 03:56:42;;;;;;;8.15;5.60;;;;;;;;;;10483570;28;20064;-69
2022/06/20 04:01:51;;;;;;;10.32;5.85;;;;;;;;;;10466106;28;20244;-69
2022/06/20 04:06:58;;;;;;;6.57;5.40;;;;;;;;;;10476554;28;20049;-68
2022/06/20 04:12:07;;;;;;;9.52;6.47;;;;;;;;;;10490016;28;20405;-69
2022/06/20 04:22:43;;;;;;;9.57;6.03;;;;;;;;;;10478088;28;20044;-68
2022/06/20 04:27:49;;;;;;;7.00;5.88;;;;;;;;;;10489455;28;20048;-68
2022/06/20 04:32:59;;;;;;;7.47;5.88;;;;;;;;;;10489748;28;20045;-68
2022/06/20 04:38:07;;;;;;;6.25;4.65;;;;;;;;;;10434822;28;20053;-68
2022/06/20 04:43:14;;;;;;;5.00;4.05;;;;;;;;;;10448359;28;20061;-67
2022/06/20 04:48:21;;;;;;;6.63;4.40;;;;;;;;;;10486275;28;20378;-68
2022/06/20 04:53:25;;;;;;;4.47;3.50;;;;;;;;;;10487944;28;20052;-68
2022/06/20 04:58:31;;;;;;;4.85;4.20;;;;;;;;;;10488289;28;20041;-67
2022/06/20 05:03:41;;;;;;;5.30;4.32;;;;;;;;;;10487310;28;20090;-68
2022/06/20 05:08:48;;;;;;;4.35;3.72;;;;;;;;;;10488203;28;20332;-68
2022/06/20 05:13:56;;;;;;;8.32;3.90;;;;;;;;;;10478858;28;20059;-68
2022/06/20 05:19:03;;;;;;;4.85;3.88;;;;;;;;;;10474072;28;20049;-67
2022/06/20 05:24:11;;;;;;;4.55;3.08;;;;;;;;;;10474682;28;20068;-67
2022/06/20 05:29:17;;;;;;;2.95;2.67;;;;;;;;;;10485996;28;20056;-67
2022/06/20 05:34:26;;;;;;;3.05;2.72;;;;;;;;;;10494467;28;20045;-67
2022/06/20 05:39:33;;;;;;;6.93;4.55;;;;;;;;;;10495393;28;20048;-67
2022/06/20 05:44:36;;;;;;;6.38;3.40;;;;;;;;;;10478361;28;20060;-67
2022/06/20 05:49:46;;;;;;;4.75;2.78;;;;;;;;;;10487854;28;20068;-66
2022/06/20 05:54:53;;;;;;;3.45;3.15;;;;;;;;;;10494777;28;20052;-66
2022/06/20 06:00:00;;;;;;;4.90;3.58;;;;;;;;;;10491989;28;20080;-66
2022/06/20 06:05:15;;;;;;;3.53;3.03;;;;;;;;;;10480721;28;20344;-67
2022/06/20 06:10:27;;;;;;;3.65;3.30;;;;;;;;;;10480708;28;20060;-67
2022/06/20 06:15:39;;;;;;;5.57;4.63;;;;;;;;;;10480986;28;20048;-67
2022/06/20 06:20:47;;;;;;;5.25;3.10;;;;;;;;;;10480893;28;20064;-67
2022/06/20 06:25:50;;;;;;;5.18;3.00;;;;;;;;;;10492993;28;20036;-68
2022/06/20 06:30:56;;;;;;;5.15;3.88;;;;;;;;;;10477977;28;20083;-66
2022/06/20 06:36:03;;;;;;;3.22;2.92;;;;;;;;;;10494541;28;20331;-67
2022/06/20 06:41:13;;;;;;;5.97;3.35;;;;;;;;;;10492530;28;20135;-67
2022/06/20 06:46:19;;;;;;;2.70;2.42;;;;;;;;;;10494119;28;20041;-67
2022/06/20 06:51:33;;;;;;;3.10;2.65;;;;;;;;;;10479333;28;20344;-67
2022/06/20 06:56:41;;;;;;;3.33;3.03;;;;;;;;;;10477838;28;20052;-67
2022/06/20 07:01:47;;;;;;;2.72;2.53;;;;;;;;;;10478072;28;20060;-67
2022/06/20 07:06:56;;;;;;;3.58;2.85;;;;;;;;;;10489760;28;20385;-67
2022/06/20 07:12:06;;;;;;;4.03;2.53;;;;;;;;;;10492979;28;20041;-67
2022/06/20 07:17:14;;;;;;;2.70;2.45;;;;;;;;;;10492398;28;20041;-67
2022/06/20 07:22:20;;;;;;;2.58;2.38;;;;;;;;;;10478691;28;20072;-68
2022/06/20 07:27:30;;;;;;;4.10;2.80;;;;;;;;;;10491961;28;20103;-69
2022/06/20 07:32:38;;;;;;;3.22;2.38;;;;;;;;;;10478188;28;20340;-67
2022/06/20 07:37:48;;;;;;;3.17;2.38;;;;;;;;;;10487707;28;20312;-68
2022/06/20 07:42:55;;;;;;;3.20;2.42;;;;;;;;;;10491564;28;20044;-67
2022/06/20 07:48:07;;;;;;;3.15;2.60;;;;;;;;;;10489299;28;20067;-68
2022/06/20 07:53:15;;;;;;;3.80;2.30;;;;;;;;;;10488211;28;20044;-67
2022/06/20 07:58:23;;;;;;;4.03;2.60;;;;;;;;;;10490968;28;20166;-67
2022/06/20 08:03:33;;;;;;;3.42;2.53;;;;;;;;;;10477285;28;20072;-67
2022/06/20 08:08:41;;;;;;;5.55;2.80;;;;;;;;;;10449427;28;20049;-67
2022/06/20 08:13:49;;;;;;;3.67;2.00;;;;;;;;;;10448908;28;20053;-67
2022/06/20 08:18:52;;;;;;;1.80;1.70;;;;;;;;;;10453437;28;20045;-68
2022/06/20 08:24:02;;;;;;;4.22;2.40;;;;;;;;;;10477806;28;20051;-67
2022/06/20 08:29:10;;;;;;;5.28;2.67;;;;;;;;;;10489737;28;20055;-68
2022/06/20 08:34:17;;;;;;;3.95;2.55;;;;;;;;;;10488858;28;20275;-66
2022/06/20 08:39:25;;;;;;;3.03;2.30;;;;;;;;;;10489171;28;20041;-68
2022/06/20 08:44:57;;;;;;;2.53;2.33;;;;;;;;;;10490312;28;20060;-68
2022/06/20 08:50:27;;;;;;;4.15;3.03;;;;;;;;;;10474751;28;20068;-66
2022/06/20 08:55:44;;;;;;;5.90;4.20;;;;;;;;;;10487974;28;20064;-67
2022/06/20 09:00:55;;;;;;;4.22;3.83;;;;;;;;;;10472445;28;20053;-68
2022/06/20 09:06:13;;;;;;;5.03;3.28;;;;;;;;;;10478469;28;20048;-68
2022/06/20 09:11:33;;;;;;;4.70;3.78;;;;;;;;;;10497675;28;20045;-68
2022/06/20 09:16:45;;;;;;;5.68;3.97;;;;;;;;;;10495698;28;20049;-68
2022/06/20 09:22:01;;;;;;;4.53;3.90;;;;;;;;;;10490425;28;20056;-68
2022/06/20 09:27:10;;;;;;;12.00;6.95;;;;;;;;;;10496416;28;20041;-67
2022/06/20 09:32:42;;;;;;;9.02;6.55;;;;;;;;;;10494030;28;20052;-68
2022/06/20 09:38:19;;;;;;;19.25;9.55;;;;;;;;;;10495960;28;20074;-68
2022/06/20 09:43:35;;;;;;;10.93;8.98;;;;;;;;;;10482221;28;20048;-73
2022/06/20 09:48:45;;;;;;;9.38;7.82;;;;;;;;;;10491853;28;20061;-70
2022/06/20 09:53:59;;;;;;;6.65;5.30;;;;;;;;;;10495518;28;20048;-70
2022/06/20 09:59:07;;;;;;;;;;;;;;;;;;10480398;28;20243;-74
2022/06/20 10:04:16;;;;;;;4.70;3.80;;;;;;;;;;10495121;28;19925;-71
2022/06/20 10:09:24;;;;;;;5.45;3.88;;;;;;;;;;10495352;28;20045;-71
2022/06/20 10:14:40;;;;;;;4.82;4.28;;;;;;;;;;10490770;28;20032;-70
2022/06/20 10:19:50;;;;;;;4.75;4.32;;;;;;;;;;10493541;28;20041;-71
2022/06/20 10:25:18;;;;;;;4.45;3.38;;;;;;;;;;10495272;28;20045;-71
2022/06/20 10:30:40;;;;;;;23.20;9.27;;;;;;;;;;10494372;28;20041;-72
2022/06/20 10:35:45;;;;;;;7.05;4.30;;;;;;;;;;10481356;28;20048;-71
2022/06/20 10:40:54;;;;;;;6.25;4.90;;;;;;;;;;10480634;28;20049;-75
2022/06/20 10:46:06;;;;;;;5.85;4.93;;;;;;;;;;10491611;28;20044;-72
2022/06/20 10:51:17;;;;;;;21.95;8.20;;;;;;;;;;10479216;28;20056;-72
2022/06/20 10:56:27;;;;;;;8.07;4.65;;;;;;;;;;10493533;28;20052;-72
2022/06/20 11:01:39;;;;;;;3.67;3.35;;;;;;;;;;10492034;28;20060;-74
2022/06/20 11:07:03;;;;;;;4.50;3.58;;;;;;;;;;10493719;28;20225;-76
2022/06/20 11:12:09;;;;;;;4.17;2.73;;;;;;;;;;10493955;28;20045;-77
2022/06/20 11:17:21;;;;;;;4.30;3.90;;;;;;;;;;10489077;28;20037;-73
2022/06/20 11:22:34;;;;;;;6.78;6.32;;;;;;;;;;10442971;28;20046;-73
2022/06/20 11:27:49;;;;;;;;;;;;;;;;;;10450831;28;20041;-75
2022/06/20 11:33:08;;;;;;;9.80;9.23;;;;;;;;;;10468461;28;19917;-76
2022/06/20 11:38:29;;;;;;;3.88;3.17;;;;;;;;;;10491788;28;20041;-75
2022/06/20 11:44:06;;;;;;;3.60;3.25;;;;;;;;;;10491904;28;20046;-73
2022/06/20 11:49:22;;;;;;;5.00;3.40;;;;;;;;;;10486376;28;20057;-75
2022/06/20 11:54:35;;;;;;;4.03;3.65;;;;;;;;;;10491456;28;20316;-75
2022/06/20 11:59:47;;;;;;;15.38;7.53;;;;;;;;;;10491662;28;20040;-74
2022/06/20 12:04:58;;;;;;;6.13;4.97;;;;;;;;;;10490027;28;20051;-74
2022/06/20 12:10:08;;;;;;;5.72;4.47;;;;;;;;;;10491177;28;20047;-75
2022/06/20 12:15:33;;;;;;;4.43;4.00;;;;;;;;;;10490113;28;20045;-74
2022/06/20 12:26:04;;;;;;;5.57;4.00;;;;;;;;;;10490334;28;20047;-76
2022/06/20 12:31:14;;;;;;;3.63;3.20;;;;;;;;;;10470050;28;20291;-75
2022/06/20 12:36:25;;;;;;;3.20;2.90;;;;;;;;;;10452499;28;20056;-78
2022/06/20 12:41:34;;;;;;;3.63;3.33;;;;;;;;;;10436214;28;20037;-77
2022/06/20 12:46:51;;;;;;;4.13;3.55;;;;;;;;;;10463031;28;20040;-77
2022/06/20 12:52:00;;;;;;;6.65;4.40;;;;;;;;;;10476639;28;20076;-74
2022/06/20 12:57:17;;;;;;;3.83;3.53;;;;;;;;;;10476130;28;20049;-76
2022/06/20 13:02:25;;;;;;;13.40;12.50;;;;;;;;;;10491135;28;20041;-77
2022/06/20 13:07:59;;;;;;;15.93;14.73;;;;;;;;;;10477573;28;20049;-75
2022/06/20 13:13:31;;;;;;;5.03;3.67;;;;;;;;;;10389154;28;20231;-75
2022/06/20 13:18:47;;;;;;;4.53;3.45;;;;;;;;;;10389944;28;20061;-74
2022/06/20 13:24:02;;;;;;;3.13;2.83;;;;;;;;;;10389612;28;20061;-74
2022/06/20 13:29:25;;;;;;;3.45;3.15;;;;;;;;;;10392894;28;20380;-74
2022/06/20 13:34:43;;;;;;;5.20;3.53;;;;;;;;;;10392220;28;20246;-72
2022/06/20 13:39:51;;;;;;;3.38;3.08;;;;;;;;;;10399937;28;20334;-72
2022/06/20 13:45:00;;;;;;;4.65;3.22;;;;;;;;;;10401196;28;20054;-72
2022/06/20 13:50:18;;;;;;;3.67;3.38;;;;;;;;;;10443865;28;20053;-75
2022/06/20 13:55:30;;;;;;;4.28;3.88;;;;;;;;;;10493731;28;20047;-74
2022/06/20 14:00:36;;;;;;;9.10;4.30;;;;;;;;;;10495876;28;20111;-74
2022/06/20 14:05:39;;;;;;;4.68;4.22;;;;;;;;;;10492470;28;20045;-75
2022/06/20 14:10:46;;;;;;;;;;;;;;;;;;10495731;28;20247;-75
2022/06/20 14:15:50;;;;;;;5.82;4.70;;;;;;;;;;10495296;28;19917;-74
2022/06/20 14:21:01;;;;;;;3.40;3.03;;;;;;;;;;10488829;28;20041;-76
2022/06/20 14:26:12;;;;;;;7.70;4.60;;;;;;;;;;10490860;28;20051;-75
2022/06/20 14:31:26;;;;;;;5.03;4.30;;;;;;;;;;10496063;28;20056;-76
2022/06/20 14:36:33;;;;;;;6.40;4.82;;;;;;;;;;10481233;28;20037;-75
2022/06/20 14:41:43;;;;;;;6.90;5.65;;;;;;;;;;10494007;28;20071;-73
2022/06/20 14:46:51;;;;;;;9.05;7.30;;;;;;;;;;10495243;28;20040;-74
2022/06/20 14:51:59;;;;;;;9.73;7.03;;;;;;;;;;10479177;28;20061;-75
2022/06/20 14:57:09;;;;;;;7.95;6.25;;;;;;;;;;10493689;28;20123;-74
2022/06/20 15:02:19;;;;;;;6.55;5.60;;;;;;;;;;10493342;28;20037;-75
2022/06/20 15:07:26;;;;;;;5.70;4.65;;;;;;;;;;10476039;28;20040;-75
2022/06/20 15:12:39;;;;;;;6.70;6.10;;;;;;;;;;10489368;28;20382;-73
2022/06/20 15:18:03;;;;;;;8.95;6.88;;;;;;;;;;10487106;28;20076;-76
2022/06/20 15:23:28;;;;;;;6.75;5.15;;;;;;;;;;10477268;28;20396;-76
2022/06/20 15:28:34;;;;;;;;;;;;;;;;;;10489513;28;20044;-73
2022/06/20 15:33:40;;;;;;;3.42;3.10;;;;;;;;;;10477071;28;19917;-71
2022/06/20 15:38:50;;;;;;;6.13;5.53;;;;;;;;;;10491995;28;20049;-74
2022/06/20 15:44:00;;;;;;;4.72;4.30;;;;;;;;;;10492352;28;20086;-75
2022/06/20 15:49:12;;;;;;;3.92;3.63;;;;;;;;;;10478228;28;20057;-75
2022/06/20 15:54:37;;;;;;;5.45;4.88;;;;;;;;;;10477950;28;20040;-74
2022/06/20 16:00:11;;;;;;;2.30;2.10;;;;;;;;;;10488134;28;20048;-70
2022/06/20 16:05:18;;;;;;;5.97;5.13;;;;;;;;;;10496405;28;20059;-73
2022/06/20 16:10:30;;;;;;;6.85;6.10;;;;;;;;;;10492352;28;20041;-71
2022/06/20 16:15:38;;;;;;;9.35;7.43;;;;;;;;;;10491408;28;20048;-75
2022/06/20 16:20:43;;;;;;;11.05;6.55;;;;;;;;;;10465358;28;20049;-72
2022/06/20 16:25:45;;;;;;;4.82;3.95;;;;;;;;;;10481984;28;20052;-74
2022/06/20 16:31:06;;;;;;;3.55;3.22;;;;;;;;;;10470754;28;20040;-72
2022/06/20 16:36:17;;;;;;;4.22;3.53;;;;;;;;;;10487636;28;20057;-75
2022/06/20 16:41:23;;;;;;;7.10;6.30;;;;;;;;;;10451022;28;20257;-75
2022/06/20 16:46:38;;;;;;;5.22;2.10;;;;;;;;;;10489413;28;20060;-75
2022/06/20 16:51:50;;;;;;;1.48;1.38;;;;;;;;;;10488195;28;20064;-72
2022/06/20 16:56:53;;;;;;;3.50;1.52;;;;;;;;;;10490672;28;20041;-72
2022/06/20 17:02:01;;;;;;;0.93;0.93;;;;;;;;;;10489665;28;20048;-75
2022/06/20 17:07:10;;;;;;;1.90;1.00;;;;;;;;;;10454899;28;20048;-75
2022/06/20 17:12:18;;;;;;;1.10;1.10;;;;;;;;;;10488968;28;20037;-72
2022/06/20 17:17:25;;;;;;;1.38;1.27;;;;;;;;;;10469681;28;20048;-74
2022/06/20 17:22:38;;;;;;;1.80;1.20;;;;;;;;;;10472495;28;20120;-72
2022/06/20 17:27:44;;;;;;;1.60;1.23;;;;;;;;;;10473489;28;20048;-72
2022/06/20 17:32:49;;;;;;;1.00;1.00;;;;;;;;;;10496785;28;20064;-71
2022/06/20 17:38:00;;;;;;;1.30;1.20;;;;;;;;;;10496588;28;20051;-72
2022/06/20 17:43:06;;;;;;;1.45;1.40;;;;;;;;;;10497945;28;20316;-70
2022/06/20 17:48:15;;;;;;;1.08;1.08;;;;;;;;;;10484687;28;20052;-70
2022/06/20 17:53:23;;;;;;;1.45;1.35;;;;;;;;;;10492367;28;20098;-73
2022/06/20 17:58:32;;;;;;;1.58;1.48;;;;;;;;;;10481102;28;20053;-72
2022/06/20 18:03:39;;;;;;;1.80;1.70;;;;;;;;;;10479117;28;20053;-71
2022/06/20 18:08:43;;;;;;;1.73;1.48;;;;;;;;;;10495879;28;20056;-75
2022/06/20 18:13:49;;;;;;;2.10;1.80;;;;;;;;;;10489474;28;20052;-74
2022/06/20 18:18:55;;;;;;;2.00;1.90;;;;;;;;;;10491990;28;20041;-71
2022/06/20 18:24:02;;;;;;;2.72;2.40;;;;;;;;;;10480823;28;20048;-75
2022/06/20 18:29:06;;;;;;;3.80;3.15;;;;;;;;;;10495676;28;20052;-69
2022/06/20 18:34:12;;;;;;;3.97;1.70;;;;;;;;;;10492084;28;20051;-75
2022/06/20 18:39:19;;;;;;;4.47;2.88;;;;;;;;;;10494340;28;20045;-74
2022/06/20 18:44:21;;;;;;;2.55;2.15;;;;;;;;;;10479441;28;20040;-74
2022/06/20 18:49:34;;;;;;;1.70;1.60;;;;;;;;;;10487333;28;20045;-72
2022/06/20 18:54:42;;;;;;;3.05;2.30;;;;;;;;;;10492644;28;20067;-72
2022/06/20 18:59:50;;;;;;;2.63;2.25;;;;;;;;;;10489770;28;20040;-73
2022/06/20 19:05:02;;;;;;;3.03;1.92;;;;;;;;;;10488918;28;20052;-71
2022/06/20 19:10:13;;;;;;;3.60;2.05;;;;;;;;;;10475683;28;20076;-73
2022/06/20 19:15:22;;;;;;;7.25;3.20;;;;;;;;;;10490140;28;20048;-70
2022/06/20 19:20:33;;;;;;;2.72;2.55;;;;;;;;;;10482876;28;20060;-70
2022/06/20 19:25:42;;;;;;;3.67;3.35;;;;;;;;;;10492529;28;20068;-71
2022/06/20 19:30:46;;;;;;;4.47;3.35;;;;;;;;;;10490606;28;20224;-73
2022/06/20 19:35:53;;;;;;;2.55;2.38;;;;;;;;;;10492618;28;20045;-72
2022/06/20 19:40:57;;;;;;;2.42;2.20;;;;;;;;;;10483711;28;20044;-69
2022/06/20 19:46:00;;;;;;;2.53;2.33;;;;;;;;;;10492169;28;20067;-72
2022/06/20 19:51:17;;;;;;;2.60;2.10;;;;;;;;;;10455481;28;20116;-68
2022/06/20 19:56:20;;;;;;;2.67;2.30;;;;;;;;;;10491063;28;20047;-71
2022/06/20 20:01:45;;;;;;;2.88;2.67;;;;;;;;;;10490475;28;20036;-70
2022/06/20 20:07:06;;;;;;;2.80;2.58;;;;;;;;;;10485519;28;20311;-70
2022/06/20 20:12:11;;;;;;;3.15;2.85;;;;;;;;;;10490397;28;20041;-69
2022/06/20 20:17:13;;;;;;;14.45;9.48;;;;;;;;;;10477047;28;20044;-68
2022/06/20 20:22:16;;;;;;;4.07;3.42;;;;;;;;;;10477669;28;20040;-70
2022/06/20 20:27:31;;;;;;;4.27;3.73;;;;;;;;;;10489603;28;20040;-69
2022/06/20 20:32:52;;;;;;;3.25;2.95;;;;;;;;;;10486577;28;20052;-71
2022/06/20 20:38:02;;;;;;;2.45;2.25;;;;;;;;;;10489139;28;20040;-68
2022/06/20 20:43:23;;;;;;;2.85;2.50;;;;;;;;;;10489629;28;20041;-68
2022/06/20 20:48:31;;;;;;;6.55;2.85;;;;;;;;;;10463219;28;20131;-70
2022/06/20 20:53:35;;;;;;;4.38;2.97;;;;;;;;;;10486457;28;20040;-71
2022/06/20 20:58:40;;;;;;;4.25;3.20;;;;;;;;;;10488865;28;20045;-71
2022/06/20 21:09:42;;;;;;;5.03;3.03;;;;;;;;;;10463564;28;20032;-71
2022/06/20 21:14:48;;;;;;;5.07;3.40;;;;;;;;;;10488137;28;20056;-69
2022/06/20 21:19:51;;;;;;;3.63;3.30;;;;;;;;;;10486708;28;20048;-68
2022/06/20 21:24:56;;;;;;;3.97;3.45;;;;;;;;;;10487820;28;20052;-68
2022/06/20 21:30:00;;;;;;;4.20;3.50;;;;;;;;;;10479121;28;20186;-71
2022/06/20 21:35:05;;;;;;;4.05;3.47;;;;;;;;;;10487856;28;20049;-69
2022/06/20 21:40:06;;;;;;;;;;;;;;;;;;10474634;28;20041;-68
2022/06/20 21:45:16;;;;;;;5.07;3.92;;;;;;;;;;10488521;28;20119;-70
2022/06/20 21:50:19;;;;;;;4.55;4.15;;;;;;;;;;10479865;28;20360;-69
2022/06/20 21:55:21;;;;;;;5.65;4.63;;;;;;;;;;10488062;28;20079;-70
2022/06/20 22:00:24;;;;;;;4.63;4.18;;;;;;;;;;10486262;28;20090;-70
2022/06/20 22:05:28;;;;;;;4.68;4.18;;;;;;;;;;10485556;28;20332;-71
2022/06/20 22:10:31;;;;;;;4.97;4.45;;;;;;;;;;10447761;28;20042;-69
2022/06/20 22:15:38;;;;;;;5.57;4.70;;;;;;;;;;10492207;28;20106;-68
2022/06/20 22:20:41;;;;;;;5.22;4.78;;;;;;;;;;10490850;28;20075;-71
2022/06/20 22:25:45;;;;;;;8.90;4.97;;;;;;;;;;10495719;28;20383;-71
2022/06/20 22:30:49;;;;;;;6.13;5.25;;;;;;;;;;10494364;28;20037;-71
2022/06/20 22:35:52;;;;;;;6.90;4.55;;;;;;;;;;10493799;28;20043;-69
2022/06/20 22:40:55;;;;;;;5.20;4.45;;;;;;;;;;10493235;28;20041;-68
2022/06/20 22:46:00;;;;;;;6.97;4.80;;;;;;;;;;10494099;28;20087;-71
2022/06/20 22:51:01;;;;;;;;;;;;;;;;;;10483704;28;20068;-71
2022/06/20 22:56:06;;;;;;;7.03;5.50;;;;;;;;;;10493365;28;19931;-69
2022/06/20 23:01:12;;;;;;;6.53;4.93;;;;;;;;;;10493389;28;20101;-72
2022/06/20 23:06:14;;;;;;;5.43;4.93;;;;;;;;;;10492589;28;20049;-73
2022/06/20 23:11:16;;;;;;;7.90;5.05;;;;;;;;;;10492852;28;20036;-72
2022/06/20 23:21:41;;;;;;;6.72;5.03;;;;;;;;;;10485692;28;20335;-71
2022/06/20 23:26:45;;;;;;;10.30;5.25;;;;;;;;;;10490786;28;20059;-71
2022/06/20 23:31:50;;;;;;;6.60;4.53;;;;;;;;;;10491366;28;20099;-70
2022/06/20 23:36:52;;;;;;;6.38;4.72;;;;;;;;;;10491662;28;20052;-70
2022/06/20 23:41:54;;;;;;;4.45;3.90;;;;;;;;;;10490932;28;20052;-71
2022/06/20 23:46:58;;;;;;;4.93;4.10;;;;;;;;;;10491219;28;20049;-70
2022/06/20 23:52:00;;;;;;;4.97;3.53;;;;;;;;;;10477784;28;20084;-70
2022/06/20 23:57:02;;;;;;;3.92;3.53;;;;;;;;;;10490512;28;20045;-71
